sensor_id;sensor_type;location;lat;lon;timestamp;temperature;humidity
6335;DHT22;3200;48.204;11.576;2024-03-29T00:01:36;4.80;99.90
6335;DHT22;3200;48.204;11.576;2024-03-29T00:04:02;4.70;99.90
6335;DHT22;3200;48.204;11.576;2024-03-29T00:06:28;4.80;99.90
6335;DHT22;3200;48.204;11.576;2024-03-29T00:08:54;4.70;99.90
6335;DHT22;3200;48.204;11.576;2024-03-29T00:11:20;4.70;99.90
6335;DHT22;3200;48.204;11.576;2024-03-29T00:13:46;4.70;99.90
6335;DHT22;3200;48.204;11.576;2024-03-29T00:16:12;4.60;99.90
6335;DHT22;3200;48.204;11.576;2024-03-29T00:18:38;4.50;99.90
6335;DHT22;3200;48.204;11.576;2024-03-29T00:21:04;4.60;99.90
6335;DHT22;3200;48.204;11.576;2024-03-29T00:23:30;4.60;99.90
6335;DHT22;3200;48.204;11.576;2024-03-29T00:25:56;4.50;99.90
6335;DHT22;3200;48.204;11.576;2024-03-29T00:28:23;4.40;99.90
6335;DHT22;3200;48.204;11.576;2024-03-29T00:30:49;4.40;99.90
6335;DHT22;3200;48.204;11.576;2024-03-29T00:33:15;4.60;99.90
6335;DHT22;3200;48.204;11.576;2024-03-29T00:35:41;4.60;99.90
6335;DHT22;3200;48.204;11.576;2024-03-29T00:38:07;4.60;99.90
6335;DHT22;3200;48.204;11.576;2024-03-29T00:40:35;4.50;99.90
6335;DHT22;3200;48.204;11.576;2024-03-29T00:43:01;4.50;99.90
6335;DHT22;3200;48.204;11.576;2024-03-29T00:45:27;4.50;99.90
6335;DHT22;3200;48.204;11.576;2024-03-29T00:47:54;4.50;99.90
6335;DHT22;3200;48.204;11.576;2024-03-29T00:50:19;4.50;99.90
6335;DHT22;3200;48.204;11.576;2024-03-29T00:52:45;4.50;99.90
6335;DHT22;3200;48.204;11.576;2024-03-29T00:55:14;4.40;99.90
6335;DHT22;3200;48.204;11.576;2024-03-29T00:57:40;4.40;99.90
6335;DHT22;3200;48.204;11.576;2024-03-29T01:00:06;4.30;99.90
6335;DHT22;3200;48.204;11.576;2024-03-29T01:02:32;4.30;99.90
6335;DHT22;3200;48.204;11.576;2024-03-29T01:04:59;4.20;99.90
6335;DHT22;3200;48.204;11.576;2024-03-29T01:07:24;4.10;99.90
6335;DHT22;3200;48.204;11.576;2024-03-29T01:09:51;4.10;99.90
6335;DHT22;3200;48.204;11.576;2024-03-29T01:12:17;4.30;99.90
6335;DHT22;3200;48.204;11.576;2024-03-29T01:14:46;4.30;99.90
6335;DHT22;3200;48.204;11.576;2024-03-29T01:17:12;4.20;99.90
6335;DHT22;3200;48.204;11.576;2024-03-29T01:19:38;4.10;99.90
6335;DHT22;3200;48.204;11.576;2024-03-29T01:22:04;4.10;99.90
6335;DHT22;3200;48.204;11.576;2024-03-29T01:24:30;4.10;99.90
6335;DHT22;3200;48.204;11.576;2024-03-29T01:26:56;4.10;99.90
6335;DHT22;3200;48.204;11.576;2024-03-29T01:29:22;4.00;99.90
6335;DHT22;3200;48.204;11.576;2024-03-29T01:31:48;3.90;99.90
6335;DHT22;3200;48.204;11.576;2024-03-29T01:34:14;3.80;99.90
6335;DHT22;3200;48.204;11.576;2024-03-29T01:36:40;3.80;99.90
6335;DHT22;3200;48.204;11.576;2024-03-29T01:39:05;3.60;99.90
6335;DHT22;3200;48.204;11.576;2024-03-29T01:41:34;3.60;99.90
6335;DHT22;3200;48.204;11.576;2024-03-29T01:43:59;3.50;99.90
6335;DHT22;3200;48.204;11.576;2024-03-29T01:46:26;3.40;99.90
6335;DHT22;3200;48.204;11.576;2024-03-29T01:48:53;3.40;99.90
6335;DHT22;3200;48.204;11.576;2024-03-29T01:51:21;3.30;99.90
6335;DHT22;3200;48.204;11.576;2024-03-29T01:53:48;3.30;99.90
6335;DHT22;3200;48.204;11.576;2024-03-29T01:56:16;3.30;99.90
6335;DHT22;3200;48.204;11.576;2024-03-29T01:58:42;3.30;99.90
6335;DHT22;3200;48.204;11.576;2024-03-29T02:01:11;3.30;99.90
6335;DHT22;3200;48.204;11.576;2024-03-29T02:03:39;3.40;99.90
6335;DHT22;3200;48.204;11.576;2024-03-29T02:06:06;3.40;99.90
6335;DHT22;3200;48.204;11.576;2024-03-29T02:08:33;3.40;99.90
6335;DHT22;3200;48.204;11.576;2024-03-29T02:10:59;3.40;99.90
6335;DHT22;3200;48.204;11.576;2024-03-29T02:13:26;3.40;99.90
6335;DHT22;3200;48.204;11.576;2024-03-29T02:15:52;3.40;99.90
6335;DHT22;3200;48.204;11.576;2024-03-29T02:18:18;3.40;99.90
6335;DHT22;3200;48.204;11.576;2024-03-29T02:20:44;3.40;99.90
6335;DHT22;3200;48.204;11.576;2024-03-29T02:23:11;3.40;99.90
6335;DHT22;3200;48.204;11.576;2024-03-29T02:25:41;3.40;99.90
6335;DHT22;3200;48.204;11.576;2024-03-29T02:28:07;3.40;99.90
6335;DHT22;3200;48.204;11.576;2024-03-29T02:30:33;3.30;99.90
6335;DHT22;3200;48.204;11.576;2024-03-29T02:32:59;3.30;99.90
6335;DHT22;3200;48.204;11.576;2024-03-29T02:35:26;3.30;99.90
6335;DHT22;3200;48.204;11.576;2024-03-29T02:37:54;3.30;99.90
6335;DHT22;3200;48.204;11.576;2024-03-29T02:40:20;3.30;99.90
6335;DHT22;3200;48.204;11.576;2024-03-29T02:42:48;3.40;99.90
6335;DHT22;3200;48.204;11.576;2024-03-29T02:45:15;3.40;99.90
6335;DHT22;3200;48.204;11.576;2024-03-29T02:47:42;3.50;99.90
6335;DHT22;3200;48.204;11.576;2024-03-29T02:50:10;3.40;99.90
6335;DHT22;3200;48.204;11.576;2024-03-29T02:52:39;3.50;99.90
6335;DHT22;3200;48.204;11.576;2024-03-29T02:55:05;3.40;99.90
6335;DHT22;3200;48.204;11.576;2024-03-29T02:57:31;3.40;99.90
6335;DHT22;3200;48.204;11.576;2024-03-29T02:59:56;3.30;99.90
6335;DHT22;3200;48.204;11.576;2024-03-29T03:02:22;3.30;99.90
6335;DHT22;3200;48.204;11.576;2024-03-29T03:04:48;3.30;99.90
6335;DHT22;3200;48.204;11.576;2024-03-29T03:07:14;3.30;99.90
6335;DHT22;3200;48.204;11.576;2024-03-29T03:09:59;3.30;99.90
6335;DHT22;3200;48.204;11.576;2024-03-29T03:12:43;3.30;99.90
6335;DHT22;3200;48.204;11.576;2024-03-29T03:15:09;3.30;99.90
6335;DHT22;3200;48.204;11.576;2024-03-29T03:17:35;3.20;99.90
6335;DHT22;3200;48.204;11.576;2024-03-29T03:20:01;3.20;99.90
6335;DHT22;3200;48.204;11.576;2024-03-29T03:22:27;3.20;99.90
6335;DHT22;3200;48.204;11.576;2024-03-29T03:24:53;3.20;99.90
6335;DHT22;3200;48.204;11.576;2024-03-29T03:27:19;3.30;99.90
6335;DHT22;3200;48.204;11.576;2024-03-29T03:29:44;3.30;99.90
6335;DHT22;3200;48.204;11.576;2024-03-29T03:32:10;3.30;99.90
6335;DHT22;3200;48.204;11.576;2024-03-29T03:34:36;3.20;99.90
6335;DHT22;3200;48.204;11.576;2024-03-29T03:37:03;3.20;99.90
6335;DHT22;3200;48.204;11.576;2024-03-29T03:39:28;3.30;99.90
6335;DHT22;3200;48.204;11.576;2024-03-29T03:41:54;3.30;99.90
6335;DHT22;3200;48.204;11.576;2024-03-29T03:44:20;3.40;99.90
6335;DHT22;3200;48.204;11.576;2024-03-29T03:46:47;3.50;99.90
6335;DHT22;3200;48.204;11.576;2024-03-29T03:49:13;3.60;99.90
6335;DHT22;3200;48.204;11.576;2024-03-29T03:51:38;3.80;99.90
6335;DHT22;3200;48.204;11.576;2024-03-29T03:54:04;3.90;99.90
6335;DHT22;3200;48.204;11.576;2024-03-29T03:56:30;3.90;99.90
6335;DHT22;3200;48.204;11.576;2024-03-29T03:58:56;3.90;99.90
6335;DHT22;3200;48.204;11.576;2024-03-29T04:01:22;3.90;99.90
6335;DHT22;3200;48.204;11.576;2024-03-29T04:03:47;3.90;99.90
6335;DHT22;3200;48.204;11.576;2024-03-29T04:06:14;3.90;99.90
6335;DHT22;3200;48.204;11.576;2024-03-29T04:08:40;3.90;99.90
6335;DHT22;3200;48.204;11.576;2024-03-29T04:11:08;3.90;99.90
6335;DHT22;3200;48.204;11.576;2024-03-29T04:13:37;3.90;99.90
6335;DHT22;3200;48.204;11.576;2024-03-29T04:16:05;3.90;99.90
6335;DHT22;3200;48.204;11.576;2024-03-29T04:18:33;3.80;99.90
6335;DHT22;3200;48.204;11.576;2024-03-29T04:21:03;3.90;99.90
6335;DHT22;3200;48.204;11.576;2024-03-29T04:23:29;3.80;99.90
6335;DHT22;3200;48.204;11.576;2024-03-29T04:25:57;3.90;99.90
6335;DHT22;3200;48.204;11.576;2024-03-29T04:28:25;3.90;99.90
6335;DHT22;3200;48.204;11.576;2024-03-29T04:33:22;4.00;99.90
6335;DHT22;3200;48.204;11.576;2024-03-29T04:35:58;4.10;99.90
6335;DHT22;3200;48.204;11.576;2024-03-29T04:38:31;3.90;99.90
6335;DHT22;3200;48.204;11.576;2024-03-29T04:40:58;3.90;99.90
6335;DHT22;3200;48.204;11.576;2024-03-29T04:43:25;3.80;99.90
6335;DHT22;3200;48.204;11.576;2024-03-29T04:46:12;3.80;99.90
6335;DHT22;3200;48.204;11.576;2024-03-29T04:48:41;3.70;99.90
6335;DHT22;3200;48.204;11.576;2024-03-29T04:51:11;3.70;99.90
6335;DHT22;3200;48.204;11.576;2024-03-29T04:53:41;3.60;99.90
6335;DHT22;3200;48.204;11.576;2024-03-29T04:56:07;3.70;99.90
6335;DHT22;3200;48.204;11.576;2024-03-29T04:58:33;3.60;99.90
6335;DHT22;3200;48.204;11.576;2024-03-29T05:00:59;3.60;99.90
6335;DHT22;3200;48.204;11.576;2024-03-29T05:03:25;3.70;99.90
6335;DHT22;3200;48.204;11.576;2024-03-29T05:05:51;3.90;99.90
6335;DHT22;3200;48.204;11.576;2024-03-29T05:08:18;4.00;99.90
6335;DHT22;3200;48.204;11.576;2024-03-29T05:10:45;4.30;99.90
6335;DHT22;3200;48.204;11.576;2024-03-29T05:13:12;4.60;99.90
6335;DHT22;3200;48.204;11.576;2024-03-29T05:15:38;4.60;99.90
6335;DHT22;3200;48.204;11.576;2024-03-29T05:18:04;4.80;99.90
6335;DHT22;3200;48.204;11.576;2024-03-29T05:20:30;4.90;99.90
6335;DHT22;3200;48.204;11.576;2024-03-29T05:22:58;5.00;99.90
6335;DHT22;3200;48.204;11.576;2024-03-29T05:25:24;5.00;99.90
6335;DHT22;3200;48.204;11.576;2024-03-29T05:27:50;5.10;99.90
6335;DHT22;3200;48.204;11.576;2024-03-29T05:30:16;5.10;99.90
6335;DHT22;3200;48.204;11.576;2024-03-29T05:32:43;5.00;99.90
6335;DHT22;3200;48.204;11.576;2024-03-29T05:35:10;5.00;99.90
6335;DHT22;3200;48.204;11.576;2024-03-29T05:37:36;5.10;99.90
6335;DHT22;3200;48.204;11.576;2024-03-29T05:40:03;5.10;99.90
6335;DHT22;3200;48.204;11.576;2024-03-29T05:42:33;5.20;99.90
6335;DHT22;3200;48.204;11.576;2024-03-29T05:45:01;5.20;99.90
6335;DHT22;3200;48.204;11.576;2024-03-29T05:47:27;5.30;99.90
6335;DHT22;3200;48.204;11.576;2024-03-29T05:49:54;5.40;99.90
6335;DHT22;3200;48.204;11.576;2024-03-29T05:52:19;5.50;99.90
6335;DHT22;3200;48.204;11.576;2024-03-29T05:54:46;5.60;99.90
6335;DHT22;3200;48.204;11.576;2024-03-29T05:57:12;5.60;99.90
6335;DHT22;3200;48.204;11.576;2024-03-29T05:59:38;5.60;99.90
6335;DHT22;3200;48.204;11.576;2024-03-29T06:02:05;5.70;99.90
6335;DHT22;3200;48.204;11.576;2024-03-29T06:04:31;5.80;99.90
6335;DHT22;3200;48.204;11.576;2024-03-29T06:07:04;5.90;99.90
6335;DHT22;3200;48.204;11.576;2024-03-29T06:09:31;6.10;99.90
6335;DHT22;3200;48.204;11.576;2024-03-29T06:11:59;6.20;99.90
6335;DHT22;3200;48.204;11.576;2024-03-29T06:14:26;6.30;99.90
6335;DHT22;3200;48.204;11.576;2024-03-29T06:17:11;7.00;99.90
6335;DHT22;3200;48.204;11.576;2024-03-29T06:19:55;7.70;99.90
6335;DHT22;3200;48.204;11.576;2024-03-29T06:22:25;8.70;99.90
6335;DHT22;3200;48.204;11.576;2024-03-29T06:24:58;9.20;99.90
6335;DHT22;3200;48.204;11.576;2024-03-29T06:27:30;9.30;99.90
6335;DHT22;3200;48.204;11.576;2024-03-29T06:29:56;12.00;99.70
6335;DHT22;3200;48.204;11.576;2024-03-29T06:32:22;14.10;96.20
6335;DHT22;3200;48.204;11.576;2024-03-29T06:34:48;14.30;95.30
6335;DHT22;3200;48.204;11.576;2024-03-29T06:37:14;14.30;93.10
6335;DHT22;3200;48.204;11.576;2024-03-29T06:39:40;11.90;95.90
6335;DHT22;3200;48.204;11.576;2024-03-29T06:42:07;12.60;95.50
6335;DHT22;3200;48.204;11.576;2024-03-29T06:44:34;11.20;96.90
6335;DHT22;3200;48.204;11.576;2024-03-29T06:47:00;11.00;98.50
6335;DHT22;3200;48.204;11.576;2024-03-29T06:49:26;13.20;95.80
6335;DHT22;3200;48.204;11.576;2024-03-29T06:51:52;14.10;93.90
6335;DHT22;3200;48.204;11.576;2024-03-29T06:54:19;13.40;95.10
6335;DHT22;3200;48.204;11.576;2024-03-29T06:56:52;12.80;95.40
6335;DHT22;3200;48.204;11.576;2024-03-29T06:59:21;13.00;95.00
6335;DHT22;3200;48.204;11.576;2024-03-29T07:01:47;13.10;94.80
6335;DHT22;3200;48.204;11.576;2024-03-29T07:04:20;13.30;94.50
6335;DHT22;3200;48.204;11.576;2024-03-29T07:06:47;14.50;93.30
6335;DHT22;3200;48.204;11.576;2024-03-29T07:09:20;18.00;90.10
6335;DHT22;3200;48.204;11.576;2024-03-29T07:11:50;19.30;85.60
6335;DHT22;3200;48.204;11.576;2024-03-29T07:14:18;19.40;83.60
6335;DHT22;3200;48.204;11.576;2024-03-29T07:16:45;20.90;80.00
6335;DHT22;3200;48.204;11.576;2024-03-29T07:19:13;21.10;77.50
6335;DHT22;3200;48.204;11.576;2024-03-29T07:21:44;21.50;75.50
6335;DHT22;3200;48.204;11.576;2024-03-29T07:24:12;20.80;77.00
6335;DHT22;3200;48.204;11.576;2024-03-29T07:26:38;21.00;75.40
6335;DHT22;3200;48.204;11.576;2024-03-29T07:29:05;22.40;71.90
6335;DHT22;3200;48.204;11.576;2024-03-29T07:31:33;23.10;70.70
6335;DHT22;3200;48.204;11.576;2024-03-29T07:33:59;23.90;69.70
6335;DHT22;3200;48.204;11.576;2024-03-29T07:36:25;22.90;68.60
6335;DHT22;3200;48.204;11.576;2024-03-29T07:38:57;24.50;66.60
6335;DHT22;3200;48.204;11.576;2024-03-29T07:41:24;25.80;64.70
6335;DHT22;3200;48.204;11.576;2024-03-29T07:43:54;26.00;62.80
6335;DHT22;3200;48.204;11.576;2024-03-29T07:46:32;27.60;60.90
6335;DHT22;3200;48.204;11.576;2024-03-29T07:49:00;27.20;59.80
6335;DHT22;3200;48.204;11.576;2024-03-29T07:51:26;26.30;59.60
6335;DHT22;3200;48.204;11.576;2024-03-29T07:53:52;26.10;59.70
6335;DHT22;3200;48.204;11.576;2024-03-29T07:56:18;24.30;61.20
6335;DHT22;3200;48.204;11.576;2024-03-29T07:58:44;25.10;60.60
6335;DHT22;3200;48.204;11.576;2024-03-29T08:01:10;25.80;59.90
6335;DHT22;3200;48.204;11.576;2024-03-29T08:03:35;26.10;58.60
6335;DHT22;3200;48.204;11.576;2024-03-29T08:06:03;25.50;58.80
6335;DHT22;3200;48.204;11.576;2024-03-29T08:08:33;24.80;59.60
6335;DHT22;3200;48.204;11.576;2024-03-29T08:10:59;25.30;59.00
6335;DHT22;3200;48.204;11.576;2024-03-29T08:13:26;25.20;58.30
6335;DHT22;3200;48.204;11.576;2024-03-29T08:15:59;24.30;59.70
6335;DHT22;3200;48.204;11.576;2024-03-29T08:18:30;24.10;60.20
6335;DHT22;3200;48.204;11.576;2024-03-29T08:20:57;23.50;60.50
6335;DHT22;3200;48.204;11.576;2024-03-29T08:23:24;24.20;59.50
6335;DHT22;3200;48.204;11.576;2024-03-29T08:25:51;23.80;60.60
6335;DHT22;3200;48.204;11.576;2024-03-29T08:28:23;22.10;62.70
6335;DHT22;3200;48.204;11.576;2024-03-29T08:31:00;19.70;67.30
6335;DHT22;3200;48.204;11.576;2024-03-29T08:33:27;18.60;68.80
6335;DHT22;3200;48.204;11.576;2024-03-29T08:35:53;17.90;69.20
6335;DHT22;3200;48.204;11.576;2024-03-29T08:38:19;17.60;70.00
6335;DHT22;3200;48.204;11.576;2024-03-29T08:40:45;17.60;70.50
6335;DHT22;3200;48.204;11.576;2024-03-29T08:43:16;17.60;71.00
6335;DHT22;3200;48.204;11.576;2024-03-29T08:45:46;17.60;70.80
6335;DHT22;3200;48.204;11.576;2024-03-29T08:48:13;17.50;71.10
6335;DHT22;3200;48.204;11.576;2024-03-29T08:50:39;17.10;71.60
6335;DHT22;3200;48.204;11.576;2024-03-29T08:53:08;17.10;71.90
6335;DHT22;3200;48.204;11.576;2024-03-29T08:55:34;17.40;71.80
6335;DHT22;3200;48.204;11.576;2024-03-29T08:58:02;17.10;72.00
6335;DHT22;3200;48.204;11.576;2024-03-29T09:00:29;17.00;72.60
6335;DHT22;3200;48.204;11.576;2024-03-29T09:02:56;17.10;73.00
6335;DHT22;3200;48.204;11.576;2024-03-29T09:05:22;16.90;72.80
6335;DHT22;3200;48.204;11.576;2024-03-29T09:07:49;17.10;73.60
6335;DHT22;3200;48.204;11.576;2024-03-29T09:10:16;17.10;73.60
6335;DHT22;3200;48.204;11.576;2024-03-29T09:12:43;16.90;74.00
6335;DHT22;3200;48.204;11.576;2024-03-29T09:15:09;17.00;74.10
6335;DHT22;3200;48.204;11.576;2024-03-29T09:17:42;17.00;73.20
6335;DHT22;3200;48.204;11.576;2024-03-29T09:20:10;17.20;73.80
6335;DHT22;3200;48.204;11.576;2024-03-29T09:22:36;17.00;73.00
6335;DHT22;3200;48.204;11.576;2024-03-29T09:25:04;17.10;72.80
6335;DHT22;3200;48.204;11.576;2024-03-29T09:27:31;17.20;73.10
6335;DHT22;3200;48.204;11.576;2024-03-29T09:29:59;17.30;73.40
6335;DHT22;3200;48.204;11.576;2024-03-29T09:32:25;17.40;73.30
6335;DHT22;3200;48.204;11.576;2024-03-29T09:34:51;17.20;73.30
6335;DHT22;3200;48.204;11.576;2024-03-29T09:37:17;17.30;73.10
6335;DHT22;3200;48.204;11.576;2024-03-29T09:39:43;17.30;73.10
6335;DHT22;3200;48.204;11.576;2024-03-29T09:42:18;17.10;72.80
6335;DHT22;3200;48.204;11.576;2024-03-29T09:44:49;17.20;73.30
6335;DHT22;3200;48.204;11.576;2024-03-29T09:47:17;17.30;73.40
6335;DHT22;3200;48.204;11.576;2024-03-29T09:49:47;17.40;73.70
6335;DHT22;3200;48.204;11.576;2024-03-29T09:52:16;17.50;73.50
6335;DHT22;3200;48.204;11.576;2024-03-29T09:54:42;17.30;73.30
6335;DHT22;3200;48.204;11.576;2024-03-29T09:57:10;17.40;73.60
6335;DHT22;3200;48.204;11.576;2024-03-29T09:59:38;17.30;73.30
6335;DHT22;3200;48.204;11.576;2024-03-29T10:02:14;17.20;74.10
6335;DHT22;3200;48.204;11.576;2024-03-29T10:04:42;17.10;74.50
6335;DHT22;3200;48.204;11.576;2024-03-29T10:07:11;17.10;74.20
6335;DHT22;3200;48.204;11.576;2024-03-29T10:09:39;17.00;73.80
6335;DHT22;3200;48.204;11.576;2024-03-29T10:12:06;17.10;74.00
6335;DHT22;3200;48.204;11.576;2024-03-29T10:14:32;17.10;74.10
6335;DHT22;3200;48.204;11.576;2024-03-29T10:17:17;17.10;73.90
6335;DHT22;3200;48.204;11.576;2024-03-29T10:19:45;17.20;74.50
6335;DHT22;3200;48.204;11.576;2024-03-29T10:22:12;17.20;73.60
6335;DHT22;3200;48.204;11.576;2024-03-29T10:24:38;17.30;73.90
6335;DHT22;3200;48.204;11.576;2024-03-29T10:27:04;17.40;74.10
6335;DHT22;3200;48.204;11.576;2024-03-29T10:29:31;17.50;74.00
6335;DHT22;3200;48.204;11.576;2024-03-29T10:31:57;17.60;74.20
6335;DHT22;3200;48.204;11.576;2024-03-29T10:34:24;17.70;74.40
6335;DHT22;3200;48.204;11.576;2024-03-29T10:36:50;17.70;74.60
6335;DHT22;3200;48.204;11.576;2024-03-29T10:39:17;17.70;74.50
6335;DHT22;3200;48.204;11.576;2024-03-29T10:41:45;17.90;73.80
6335;DHT22;3200;48.204;11.576;2024-03-29T10:44:13;17.80;73.60
6335;DHT22;3200;48.204;11.576;2024-03-29T10:46:40;17.80;74.00
6335;DHT22;3200;48.204;11.576;2024-03-29T10:49:08;17.90;74.10
6335;DHT22;3200;48.204;11.576;2024-03-29T10:51:38;18.10;74.40
6335;DHT22;3200;48.204;11.576;2024-03-29T10:54:06;18.30;74.30
6335;DHT22;3200;48.204;11.576;2024-03-29T10:56:35;18.40;73.30
6335;DHT22;3200;48.204;11.576;2024-03-29T11:01:41;18.60;74.10
6335;DHT22;3200;48.204;11.576;2024-03-29T11:04:17;18.70;74.30
6335;DHT22;3200;48.204;11.576;2024-03-29T11:06:50;18.60;73.10
6335;DHT22;3200;48.204;11.576;2024-03-29T11:09:20;18.50;72.70
6335;DHT22;3200;48.204;11.576;2024-03-29T11:11:50;18.60;73.20
6335;DHT22;3200;48.204;11.576;2024-03-29T11:14:22;18.70;72.30
6335;DHT22;3200;48.204;11.576;2024-03-29T11:16:52;18.60;72.40
6335;DHT22;3200;48.204;11.576;2024-03-29T11:19:22;18.60;73.00
6335;DHT22;3200;48.204;11.576;2024-03-29T11:21:49;18.60;73.30
6335;DHT22;3200;48.204;11.576;2024-03-29T11:24:19;18.60;73.30
6335;DHT22;3200;48.204;11.576;2024-03-29T11:26:48;18.60;73.90
6335;DHT22;3200;48.204;11.576;2024-03-29T11:29:21;18.60;73.20
6335;DHT22;3200;48.204;11.576;2024-03-29T11:31:55;18.80;73.50
6335;DHT22;3200;48.204;11.576;2024-03-29T11:34:22;18.80;72.20
6335;DHT22;3200;48.204;11.576;2024-03-29T11:36:47;18.80;72.00
6335;DHT22;3200;48.204;11.576;2024-03-29T11:39:21;18.80;72.00
6335;DHT22;3200;48.204;11.576;2024-03-29T11:41:48;18.80;71.90
6335;DHT22;3200;48.204;11.576;2024-03-29T11:44:15;18.80;72.50
6335;DHT22;3200;48.204;11.576;2024-03-29T11:46:42;18.90;73.20
6335;DHT22;3200;48.204;11.576;2024-03-29T11:49:12;18.90;73.60
6335;DHT22;3200;48.204;11.576;2024-03-29T11:51:38;18.90;73.60
6335;DHT22;3200;48.204;11.576;2024-03-29T11:54:04;18.90;73.10
6335;DHT22;3200;48.204;11.576;2024-03-29T11:56:30;18.90;73.30
6335;DHT22;3200;48.204;11.576;2024-03-29T11:58:55;18.90;71.80
6335;DHT22;3200;48.204;11.576;2024-03-29T12:01:28;19.00;72.20
6335;DHT22;3200;48.204;11.576;2024-03-29T12:03:55;19.00;72.60
6335;DHT22;3200;48.204;11.576;2024-03-29T12:06:21;19.00;71.70
6335;DHT22;3200;48.204;11.576;2024-03-29T12:08:47;19.20;73.10
6335;DHT22;3200;48.204;11.576;2024-03-29T12:11:14;19.20;72.30
6335;DHT22;3200;48.204;11.576;2024-03-29T12:13:40;19.30;71.90
6335;DHT22;3200;48.204;11.576;2024-03-29T12:16:06;19.40;72.60
6335;DHT22;3200;48.204;11.576;2024-03-29T12:18:33;19.50;72.70
6335;DHT22;3200;48.204;11.576;2024-03-29T12:21:01;19.50;72.30
6335;DHT22;3200;48.204;11.576;2024-03-29T12:23:27;19.60;71.70
6335;DHT22;3200;48.204;11.576;2024-03-29T12:25:55;19.40;70.90
6335;DHT22;3200;48.204;11.576;2024-03-29T12:28:24;19.30;71.30
6335;DHT22;3200;48.204;11.576;2024-03-29T12:30:50;19.40;71.80
6335;DHT22;3200;48.204;11.576;2024-03-29T12:33:19;19.70;71.80
6335;DHT22;3200;48.204;11.576;2024-03-29T12:35:50;19.60;71.50
6335;DHT22;3200;48.204;11.576;2024-03-29T12:38:21;19.50;70.70
6335;DHT22;3200;48.204;11.576;2024-03-29T12:40:49;19.30;72.00
6335;DHT22;3200;48.204;11.576;2024-03-29T12:43:20;19.30;72.90
6335;DHT22;3200;48.204;11.576;2024-03-29T12:45:48;19.50;72.50
6335;DHT22;3200;48.204;11.576;2024-03-29T12:48:17;19.50;71.50
6335;DHT22;3200;48.204;11.576;2024-03-29T12:50:46;19.70;71.20
6335;DHT22;3200;48.204;11.576;2024-03-29T12:53:13;19.50;72.00
6335;DHT22;3200;48.204;11.576;2024-03-29T12:55:41;19.60;71.60
6335;DHT22;3200;48.204;11.576;2024-03-29T12:58:14;19.70;70.30
6335;DHT22;3200;48.204;11.576;2024-03-29T13:00:42;19.60;70.50
6335;DHT22;3200;48.204;11.576;2024-03-29T13:03:11;19.60;71.20
6335;DHT22;3200;48.204;11.576;2024-03-29T13:05:38;20.00;69.90
6335;DHT22;3200;48.204;11.576;2024-03-29T13:08:08;20.00;70.30
6335;DHT22;3200;48.204;11.576;2024-03-29T13:10:41;19.80;70.50
6335;DHT22;3200;48.204;11.576;2024-03-29T13:13:08;20.00;71.00
6335;DHT22;3200;48.204;11.576;2024-03-29T13:15:36;20.10;69.20
6335;DHT22;3200;48.204;11.576;2024-03-29T13:18:03;19.90;69.10
6335;DHT22;3200;48.204;11.576;2024-03-29T13:20:30;19.90;69.90
6335;DHT22;3200;48.204;11.576;2024-03-29T13:22:58;19.80;70.30
6335;DHT22;3200;48.204;11.576;2024-03-29T13:25:24;20.00;69.40
6335;DHT22;3200;48.204;11.576;2024-03-29T13:27:52;20.00;70.10
6335;DHT22;3200;48.204;11.576;2024-03-29T13:30:21;20.10;70.20
6335;DHT22;3200;48.204;11.576;2024-03-29T13:32:48;20.00;68.70
6335;DHT22;3200;48.204;11.576;2024-03-29T13:35:14;20.00;70.00
6335;DHT22;3200;48.204;11.576;2024-03-29T13:37:42;20.00;70.00
6335;DHT22;3200;48.204;11.576;2024-03-29T13:40:09;19.90;70.50
6335;DHT22;3200;48.204;11.576;2024-03-29T13:42:37;19.90;69.80
6335;DHT22;3200;48.204;11.576;2024-03-29T13:45:04;19.90;69.80
6335;DHT22;3200;48.204;11.576;2024-03-29T13:47:32;20.00;69.90
6335;DHT22;3200;48.204;11.576;2024-03-29T13:49:59;20.00;69.10
6335;DHT22;3200;48.204;11.576;2024-03-29T13:52:25;20.00;69.90
6335;DHT22;3200;48.204;11.576;2024-03-29T13:54:53;20.00;69.20
6335;DHT22;3200;48.204;11.576;2024-03-29T13:57:19;20.00;69.00
6335;DHT22;3200;48.204;11.576;2024-03-29T13:59:46;20.00;68.20
6335;DHT22;3200;48.204;11.576;2024-03-29T14:02:17;19.80;68.50
6335;DHT22;3200;48.204;11.576;2024-03-29T14:04:44;20.00;68.50
6335;DHT22;3200;48.204;11.576;2024-03-29T14:07:11;19.80;69.20
6335;DHT22;3200;48.204;11.576;2024-03-29T14:09:42;19.80;69.20
6335;DHT22;3200;48.204;11.576;2024-03-29T14:12:09;19.80;69.10
6335;DHT22;3200;48.204;11.576;2024-03-29T14:14:36;19.80;69.50
6335;DHT22;3200;48.204;11.576;2024-03-29T14:17:02;19.70;70.50
6335;DHT22;3200;48.204;11.576;2024-03-29T14:19:39;19.80;69.30
6335;DHT22;3200;48.204;11.576;2024-03-29T14:22:06;19.80;68.80
6335;DHT22;3200;48.204;11.576;2024-03-29T14:24:32;19.80;70.00
6335;DHT22;3200;48.204;11.576;2024-03-29T14:27:04;19.80;70.00
6335;DHT22;3200;48.204;11.576;2024-03-29T14:29:34;19.80;69.60
6335;DHT22;3200;48.204;11.576;2024-03-29T14:32:00;19.70;69.50
6335;DHT22;3200;48.204;11.576;2024-03-29T14:34:27;19.80;69.90
6335;DHT22;3200;48.204;11.576;2024-03-29T14:36:57;19.80;68.90
6335;DHT22;3200;48.204;11.576;2024-03-29T14:39:22;19.70;68.40
6335;DHT22;3200;48.204;11.576;2024-03-29T14:41:48;19.90;67.30
6335;DHT22;3200;48.204;11.576;2024-03-29T14:44:17;19.80;67.40
6335;DHT22;3200;48.204;11.576;2024-03-29T14:46:44;19.70;68.20
6335;DHT22;3200;48.204;11.576;2024-03-29T14:49:10;19.70;68.00
6335;DHT22;3200;48.204;11.576;2024-03-29T14:51:37;19.70;68.50
6335;DHT22;3200;48.204;11.576;2024-03-29T14:54:04;19.90;67.90
6335;DHT22;3200;48.204;11.576;2024-03-29T14:56:32;19.80;68.00
6335;DHT22;3200;48.204;11.576;2024-03-29T14:59:01;19.80;68.20
6335;DHT22;3200;48.204;11.576;2024-03-29T15:01:29;19.80;68.90
6335;DHT22;3200;48.204;11.576;2024-03-29T15:03:55;20.00;66.90
6335;DHT22;3200;48.204;11.576;2024-03-29T15:06:21;19.90;67.30
6335;DHT22;3200;48.204;11.576;2024-03-29T15:08:50;19.90;67.00
6335;DHT22;3200;48.204;11.576;2024-03-29T15:11:18;19.80;67.20
6335;DHT22;3200;48.204;11.576;2024-03-29T15:13:44;19.90;67.00
6335;DHT22;3200;48.204;11.576;2024-03-29T15:16:10;20.00;66.50
6335;DHT22;3200;48.204;11.576;2024-03-29T15:18:35;19.90;67.20
6335;DHT22;3200;48.204;11.576;2024-03-29T15:21:03;19.90;67.40
6335;DHT22;3200;48.204;11.576;2024-03-29T15:23:30;19.90;66.70
6335;DHT22;3200;48.204;11.576;2024-03-29T15:25:57;19.80;67.10
6335;DHT22;3200;48.204;11.576;2024-03-29T15:28:26;19.80;67.40
6335;DHT22;3200;48.204;11.576;2024-03-29T15:31:15;19.60;67.40
6335;DHT22;3200;48.204;11.576;2024-03-29T15:33:48;19.60;67.20
6335;DHT22;3200;48.204;11.576;2024-03-29T15:36:15;19.60;67.60
6335;DHT22;3200;48.204;11.576;2024-03-29T15:38:41;19.50;67.10
6335;DHT22;3200;48.204;11.576;2024-03-29T15:41:07;19.40;67.40
6335;DHT22;3200;48.204;11.576;2024-03-29T15:43:34;19.30;67.80
6335;DHT22;3200;48.204;11.576;2024-03-29T15:46:02;19.30;67.60
6335;DHT22;3200;48.204;11.576;2024-03-29T15:48:28;19.30;67.30
6335;DHT22;3200;48.204;11.576;2024-03-29T15:50:54;19.20;68.00
6335;DHT22;3200;48.204;11.576;2024-03-29T15:53:20;19.20;68.30
6335;DHT22;3200;48.204;11.576;2024-03-29T15:55:47;19.10;68.00
6335;DHT22;3200;48.204;11.576;2024-03-29T15:58:13;19.10;68.20
6335;DHT22;3200;48.204;11.576;2024-03-29T16:00:40;19.00;68.60